Hovedside
METAR-TAF:

METAR-TAF

Lufthavner :

Skövde, Sverige

breddegrad: 58-27N, lengdegrad: 013-58E, høyde over havet: 98 m

Gjeldene værobservasjon

Denne rapporten ble laget for 22 minutter siden, klokken 17:20 UTC
Vind 4 kt fra Øst-sørøst, skiftende mellom Øst og Sør
Temperatur 24°C
Luftfuktighet 34%
Trykk 1026 hPa
Sikt 10 km eller mer

METAR: ESGR 261720Z AUTO 11004KT 080V170 9999 NCD 24/07 Q1026

Tid: 19:42 (17:42 UTC)


TAF: fraværende

Værobservasjoner og værvarsel for over 4000 flyplasser (METAR- og TAF-rapporter).

Tilgjengelige stasjoner er representert av de røde og gule prikkene på kartet.

Hold musepekeren over prikken for å se navnet på stasjonen.

Klikk så for å se værobservasjoner og -varsler.

For å forandre kartet kan du klikke på den grønne knappen med svart kryss for å zoome inn, på den grønne knappen med strek for å zoome ut, eller på de grønne pilene for å se tilstøtende kart.


METAR-TAF: